Clezio — FAB4151 — position and weather

sailwx.info

Track history (hours):
 
Tides and Currents Weather Stations Pressure Air Temp Water Temp Dewpoint Dewpoint Depression Visibility Wind Speed Wind Dir Waves Ship Positions

Clezio

Last reported at 2017-Sep-19 16:11 UTC. Time now 2017-Sep-19 20:40 UTC.
Position N 49°29' E 000°06'.

Length 12 m.

Type: Sailing vessel. MMSI: 227201280.

Date/timePositionNaut miles runAvg speedWind from/ knotsBaromVisibWave heightAir tempDewpointWater temp
2017-Sep-19 16:11N 49°29' E 000°06'0 0.0
2017-Sep-19 15:54N 49°29' E 000°06'1 3.1
2017-Sep-19 15:30N 49°30' E 000°04'1 2.9
2017-Sep-19 15:00N 49°29' E 000°02'2 3.7
2017-Sep-19 14:29N 49°30' E 000°05'1 0.0
2017-Sep-17 12:36N 49°29' E 000°06'0 0.0
2017-Sep-17 12:23N 49°29' E 000°06'0 0.0
2017-Sep-17 12:00N 49°29' E 000°06'0 0.0
2017-Sep-17 11:11N 49°29' E 000°06'0 0.0
2017-Sep-17 11:00N 49°29' E 000°06'1 2.4
2017-Sep-17 10:25N 49°30' E 000°04'3 5.1
2017-Sep-17 09:56N 49°27' E 000°02'3 7.0
2017-Sep-17 09:29N 49°26' E 000°07'3 7.0
2017-Sep-17 09:00N 49°26' E 000°12'2 3.0
2017-Sep-17 08:30N 49°25' E 000°14'0 0.0
2017-Sep-17 07:48N 49°25' E 000°14'0 0.0
2017-Sep-17 07:18N 49°25' E 000°14'0 0.0
2017-Sep-17 07:00N 49°25' E 000°14'0 0.0
2017-Sep-17 06:27N 49°25' E 000°14'0 0.0
2017-Sep-17 05:18N 49°25' E 000°14'0 0.0
2017-Sep-17 04:57N 49°25' E 000°14'0 0.0
2017-Sep-17 04:30N 49°25' E 000°14'0 0.0
2017-Sep-17 04:00N 49°25' E 000°14'0 0.0
2017-Sep-17 03:27N 49°25' E 000°14'0 0.0
2017-Sep-17 03:00N 49°25' E 000°14'0 0.0
2017-Sep-17 02:30N 49°25' E 000°14'0 0.0
2017-Sep-17 01:57N 49°25' E 000°14'0 0.0
2017-Sep-17 01:27N 49°25' E 000°14'0 0.0
2017-Sep-17 01:00N 49°25' E 000°14'0 0.0
2017-Sep-17 00:30N 49°25' E 000°14'0 0.0
2017-Sep-17 00:00N 49°25' E 000°14'0 0.0
2017-Sep-16 23:27N 49°25' E 000°14'0 0.0
2017-Sep-16 22:57N 49°25' E 000°14'0 0.0
2017-Sep-16 22:27N 49°25' E 000°14'0 0.0
2017-Sep-16 21:57N 49°25' E 000°14'0 0.0
2017-Sep-16 21:27N 49°25' E 000°14'0 0.0
2017-Sep-16 20:51N 49°25' E 000°14'0 0.0
2017-Sep-16 20:30N 49°25' E 000°14'0 0.0
2017-Sep-16 20:00N 49°25' E 000°14'0 0.0
2017-Sep-16 19:27N 49°25' E 000°14'0 0.0
2017-Sep-16 18:51N 49°25' E 000°14'0 0.0
2017-Sep-16 18:15N 49°25' E 000°14'0 0.0
2017-Sep-16 18:00N 49°25' E 000°14'0 0.0
2017-Sep-16 17:24N 49°25' E 000°14'0 0.0
2017-Sep-16 16:57N 49°25' E 000°14'0 0.0
2017-Sep-16 16:27N 49°25' E 000°14'0 0.4
2017-Sep-16 15:56N 49°26' E 000°14'1 1.7
2017-Sep-16 15:30N 49°26' E 000°13'3 5.7
2017-Sep-16 15:00N 49°26' E 000°09'3 5.2
2017-Sep-16 14:29N 49°26' E 000°05'2 4.4
2017-Sep-16 14:00N 49°26' E 000°01'0 0.4
2017-Sep-16 13:17N 49°26' E 000°01'1 0.6
2017-Sep-16 11:16N 49°25' E 000°01'1 3.4
2017-Sep-16 10:52N 49°26' E 000°01'2 5.2
2017-Sep-16 10:28N 49°26' E 000°04'4 7.1
2017-Sep-16 09:58N 49°26' E 000°10'2 5.1
2017-Sep-16 09:30N 49°26' E 000°13'1 1.0
2017-Sep-16 09:00N 49°26' E 000°14'0 0.3
2017-Sep-16 08:24N 49°25' E 000°14'0 0.0
2017-Sep-16 08:00N 49°25' E 000°14'0 0.0
2017-Sep-16 07:30N 49°25' E 000°14'0 0.0
2017-Sep-16 07:00N 49°25' E 000°14'0 0.0
2017-Sep-16 06:30N 49°25' E 000°14'0 0.0
2017-Sep-16 06:00N 49°25' E 000°14'0 0.0
2017-Sep-16 05:30N 49°25' E 000°14'0 0.0
2017-Sep-16 05:00N 49°25' E 000°14'0 0.0
2017-Sep-16 04:30N 49°25' E 000°14'0 0.0
2017-Sep-16 03:54N 49°25' E 000°14'0 0.0
2017-Sep-16 03:30N 49°25' E 000°14'0 0.0
2017-Sep-16 02:54N 49°25' E 000°14'0 0.0
2017-Sep-16 02:27N 49°25' E 000°14'0 0.0
2017-Sep-16 02:00N 49°25' E 000°14'0 0.0
2017-Sep-16 01:30N 49°25' E 000°14'0 0.0
2017-Sep-16 01:00N 49°25' E 000°14'0 0.0
2017-Sep-16 00:30N 49°25' E 000°14'0 0.0
2017-Sep-16 00:00N 49°25' E 000°14'0 0.0
2017-Sep-15 23:30N 49°25' E 000°14'0 0.0
2017-Sep-15 23:00N 49°25' E 000°14'0 0.0
2017-Sep-15 22:27N 49°25' E 000°14'0 0.0
2017-Sep-15 21:54N 49°25' E 000°14'0 0.0
2017-Sep-15 21:30N 49°25' E 000°14'0 0.0
2017-Sep-15 20:48N 49°25' E 000°14'0 0.0
2017-Sep-15 20:30N 49°25' E 000°14'0 0.0
2017-Sep-15 20:00N 49°25' E 000°14'0 0.0
2017-Sep-15 19:30N 49°25' E 000°14'0 0.0
2017-Sep-15 19:00N 49°25' E 000°14'0 0.0
2017-Sep-15 17:48N 49°25' E 000°14'0 0.0
2017-Sep-15 17:27N 49°25' E 000°14'0 0.0
2017-Sep-15 16:48N 49°25' E 000°14'0 0.0
2017-Sep-15 16:09N 49°25' E 000°14'0 0.0
2017-Sep-15 16:00N 49°25' E 000°14'0 0.0
2017-Sep-15 15:30N 49°25' E 000°14'0 0.4
2017-Sep-15 14:56N 49°26' E 000°14'3 7.5
2017-Sep-15 14:30N 49°26' E 000°09'4 7.2
2017-Sep-15 14:00N 49°27' E 000°04'3 5.1
2017-Sep-15 13:29N 49°29' E 000°02'2 0.1
2017-Sep-13 15:06N 49°29' E 000°06'0 0.0
2017-Sep-13 14:45N 49°29' E 000°06'0 0.0
2017-Sep-13 14:30N 49°29' E 000°06'0 0.0
2017-Sep-13 14:00N 49°29' E 000°06'0 0.0
2017-Sep-13 13:30N 49°29' E 000°06'0 0.0
2017-Sep-13 13:00N 49°29' E 000°06'  
Track history (hours):
 
Tides and Currents Weather Stations Pressure Air Temp Water Temp Dewpoint Dewpoint Depression Visibility Wind Speed Wind Dir Waves Ship Positions

Clezio

Last reported at 2017-Sep-19 16:11 UTC. Time now 2017-Sep-19 20:40 UTC.
Position N 49°29' E 000°06'.

Length 12 m.

Type: Sailing vessel. MMSI: 227201280.

Date/timePositionNaut miles runAvg speedWind from/ knotsBaromVisibWave heightAir tempDewpointWater temp
2017-Sep-19 16:11N 49°29' E 000°06'0 0.0
2017-Sep-19 15:54N 49°29' E 000°06'1 3.1
2017-Sep-19 15:30N 49°30' E 000°04'1 2.9
2017-Sep-19 15:00N 49°29' E 000°02'2 3.7
2017-Sep-19 14:29N 49°30' E 000°05'1 0.0
2017-Sep-17 12:36N 49°29' E 000°06'0 0.0
2017-Sep-17 12:23N 49°29' E 000°06'0 0.0
2017-Sep-17 12:00N 49°29' E 000°06'0 0.0
2017-Sep-17 11:11N 49°29' E 000°06'0 0.0
2017-Sep-17 11:00N 49°29' E 000°06'1 2.4
2017-Sep-17 10:25N 49°30' E 000°04'3 5.1
2017-Sep-17 09:56N 49°27' E 000°02'3 7.0
2017-Sep-17 09:29N 49°26' E 000°07'3 7.0
2017-Sep-17 09:00N 49°26' E 000°12'2 3.0
2017-Sep-17 08:30N 49°25' E 000°14'0 0.0
2017-Sep-17 07:48N 49°25' E 000°14'0 0.0
2017-Sep-17 07:18N 49°25' E 000°14'0 0.0
2017-Sep-17 07:00N 49°25' E 000°14'0 0.0
2017-Sep-17 06:27N 49°25' E 000°14'0 0.0
2017-Sep-17 05:18N 49°25' E 000°14'0 0.0
2017-Sep-17 04:57N 49°25' E 000°14'0 0.0
2017-Sep-17 04:30N 49°25' E 000°14'0 0.0
2017-Sep-17 04:00N 49°25' E 000°14'0 0.0
2017-Sep-17 03:27N 49°25' E 000°14'0 0.0
2017-Sep-17 03:00N 49°25' E 000°14'0 0.0
2017-Sep-17 02:30N 49°25' E 000°14'0 0.0
2017-Sep-17 01:57N 49°25' E 000°14'0 0.0
2017-Sep-17 01:27N 49°25' E 000°14'0 0.0
2017-Sep-17 01:00N 49°25' E 000°14'0 0.0
2017-Sep-17 00:30N 49°25' E 000°14'0 0.0
2017-Sep-17 00:00N 49°25' E 000°14'0 0.0
2017-Sep-16 23:27N 49°25' E 000°14'0 0.0
2017-Sep-16 22:57N 49°25' E 000°14'0 0.0
2017-Sep-16 22:27N 49°25' E 000°14'0 0.0
2017-Sep-16 21:57N 49°25' E 000°14'0 0.0
2017-Sep-16 21:27N 49°25' E 000°14'0 0.0
2017-Sep-16 20:51N 49°25' E 000°14'0 0.0
2017-Sep-16 20:30N 49°25' E 000°14'0 0.0
2017-Sep-16 20:00N 49°25' E 000°14'0 0.0
2017-Sep-16 19:27N 49°25' E 000°14'0 0.0
2017-Sep-16 18:51N 49°25' E 000°14'0 0.0
2017-Sep-16 18:15N 49°25' E 000°14'0 0.0
2017-Sep-16 18:00N 49°25' E 000°14'0 0.0
2017-Sep-16 17:24N 49°25' E 000°14'0 0.0
2017-Sep-16 16:57N 49°25' E 000°14'0 0.0
2017-Sep-16 16:27N 49°25' E 000°14'0 0.4
2017-Sep-16 15:56N 49°26' E 000°14'1 1.7
2017-Sep-16 15:30N 49°26' E 000°13'3 5.7
2017-Sep-16 15:00N 49°26' E 000°09'3 5.2
2017-Sep-16 14:29N 49°26' E 000°05'2 4.4
2017-Sep-16 14:00N 49°26' E 000°01'0 0.4
2017-Sep-16 13:17N 49°26' E 000°01'1 0.6
2017-Sep-16 11:16N 49°25' E 000°01'1 3.4
2017-Sep-16 10:52N 49°26' E 000°01'2 5.2
2017-Sep-16 10:28N 49°26' E 000°04'4 7.1
2017-Sep-16 09:58N 49°26' E 000°10'2 5.1
2017-Sep-16 09:30N 49°26' E 000°13'1 1.0
2017-Sep-16 09:00N 49°26' E 000°14'0 0.3
2017-Sep-16 08:24N 49°25' E 000°14'0 0.0
2017-Sep-16 08:00N 49°25' E 000°14'0 0.0
2017-Sep-16 07:30N 49°25' E 000°14'0 0.0
2017-Sep-16 07:00N 49°25' E 000°14'0 0.0
2017-Sep-16 06:30N 49°25' E 000°14'0 0.0
2017-Sep-16 06:00N 49°25' E 000°14'0 0.0
2017-Sep-16 05:30N 49°25' E 000°14'0 0.0
2017-Sep-16 05:00N 49°25' E 000°14'0 0.0
2017-Sep-16 04:30N 49°25' E 000°14'0 0.0
2017-Sep-16 03:54N 49°25' E 000°14'0 0.0
2017-Sep-16 03:30N 49°25' E 000°14'0 0.0
2017-Sep-16 02:54N 49°25' E 000°14'0 0.0
2017-Sep-16 02:27N 49°25' E 000°14'0 0.0
2017-Sep-16 02:00N 49°25' E 000°14'0 0.0
2017-Sep-16 01:30N 49°25' E 000°14'0 0.0
2017-Sep-16 01:00N 49°25' E 000°14'0 0.0
2017-Sep-16 00:30N 49°25' E 000°14'0 0.0
2017-Sep-16 00:00N 49°25' E 000°14'0 0.0
2017-Sep-15 23:30N 49°25' E 000°14'0 0.0
2017-Sep-15 23:00N 49°25' E 000°14'0 0.0
2017-Sep-15 22:27N 49°25' E 000°14'0 0.0
2017-Sep-15 21:54N 49°25' E 000°14'0 0.0
2017-Sep-15 21:30N 49°25' E 000°14'0 0.0
2017-Sep-15 20:48N 49°25' E 000°14'0 0.0
2017-Sep-15 20:30N 49°25' E 000°14'0 0.0
2017-Sep-15 20:00N 49°25' E 000°14'0 0.0
2017-Sep-15 19:30N 49°25' E 000°14'0 0.0
2017-Sep-15 19:00N 49°25' E 000°14'0 0.0
2017-Sep-15 17:48N 49°25' E 000°14'0 0.0
2017-Sep-15 17:27N 49°25' E 000°14'0 0.0
2017-Sep-15 16:48N 49°25' E 000°14'0 0.0
2017-Sep-15 16:09N 49°25' E 000°14'0 0.0
2017-Sep-15 16:00N 49°25' E 000°14'0 0.0
2017-Sep-15 15:30N 49°25' E 000°14'0 0.4
2017-Sep-15 14:56N 49°26' E 000°14'3 7.5
2017-Sep-15 14:30N 49°26' E 000°09'4 7.2
2017-Sep-15 14:00N 49°27' E 000°04'3 5.1
2017-Sep-15 13:29N 49°29' E 000°02'2 0.1
2017-Sep-13 15:06N 49°29' E 000°06'0 0.0
2017-Sep-13 14:45N 49°29' E 000°06'0 0.0
2017-Sep-13 14:30N 49°29' E 000°06'0 0.0
2017-Sep-13 14:00N 49°29' E 000°06'0 0.0
2017-Sep-13 13:30N 49°29' E 000°06'0 0.0
2017-Sep-13 13:00N 49°29' E 000°06'  

Dump ship's entire track history